sensor_id;sensor_type;location;lat;lon;timestamp;P1;durP1;ratioP1;P2;durP2;ratioP2
42260;SDS011;27926;48.062;7.474;2023-04-03T00:00:02;3.75;;;2.50;;
42260;SDS011;27926;48.062;7.474;2023-04-03T00:02:28;11.57;;;3.10;;
42260;SDS011;27926;48.062;7.474;2023-04-03T00:04:53;5.50;;;2.92;;
42260;SDS011;27926;48.062;7.474;2023-04-03T00:07:18;3.63;;;2.15;;
42260;SDS011;27926;48.062;7.474;2023-04-03T00:09:42;3.63;;;2.08;;
42260;SDS011;27926;48.062;7.474;2023-04-03T00:12:07;6.47;;;3.05;;
42260;SDS011;27926;48.062;7.474;2023-04-03T00:14:32;4.05;;;2.15;;
42260;SDS011;27926;48.062;7.474;2023-04-03T00:16:56;4.78;;;2.70;;
42260;SDS011;27926;48.062;7.474;2023-04-03T00:19:21;9.30;;;2.38;;
42260;SDS011;27926;48.062;7.474;2023-04-03T00:21:45;6.30;;;2.80;;
42260;SDS011;27926;48.062;7.474;2023-04-03T00:24:10;6.38;;;2.30;;
42260;SDS011;27926;48.062;7.474;2023-04-03T00:26:35;5.10;;;2.10;;
42260;SDS011;27926;48.062;7.474;2023-04-03T00:28:59;7.05;;;2.22;;
42260;SDS011;27926;48.062;7.474;2023-04-03T00:31:24;6.38;;;2.42;;
42260;SDS011;27926;48.062;7.474;2023-04-03T00:33:49;10.27;;;2.83;;
42260;SDS011;27926;48.062;7.474;2023-04-03T00:36:13;4.18;;;2.40;;
42260;SDS011;27926;48.062;7.474;2023-04-03T00:38:38;5.78;;;2.80;;
42260;SDS011;27926;48.062;7.474;2023-04-03T00:41:03;4.47;;;2.28;;
42260;SDS011;27926;48.062;7.474;2023-04-03T00:43:28;6.07;;;2.83;;
42260;SDS011;27926;48.062;7.474;2023-04-03T00:45:54;5.30;;;3.83;;
42260;SDS011;27926;48.062;7.474;2023-04-03T00:48:20;5.22;;;2.90;;
42260;SDS011;27926;48.062;7.474;2023-04-03T00:50:49;4.82;;;2.63;;
42260;SDS011;27926;48.062;7.474;2023-04-03T00:53:16;5.68;;;2.10;;
42260;SDS011;27926;48.062;7.474;2023-04-03T00:55:45;4.05;;;2.33;;
42260;SDS011;27926;48.062;7.474;2023-04-03T00:58:11;5.80;;;2.63;;
42260;SDS011;27926;48.062;7.474;2023-04-03T01:00:37;9.48;;;2.60;;
42260;SDS011;27926;48.062;7.474;2023-04-03T01:03:07;4.13;;;2.42;;
42260;SDS011;27926;48.062;7.474;2023-04-03T01:05:31;15.32;;;3.03;;
42260;SDS011;27926;48.062;7.474;2023-04-03T01:07:56;4.03;;;2.47;;
42260;SDS011;27926;48.062;7.474;2023-04-03T01:10:22;4.75;;;2.35;;
42260;SDS011;27926;48.062;7.474;2023-04-03T01:12:48;4.70;;;3.10;;
42260;SDS011;27926;48.062;7.474;2023-04-03T01:15:19;6.03;;;2.63;;
42260;SDS011;27926;48.062;7.474;2023-04-03T01:17:50;4.22;;;2.53;;
42260;SDS011;27926;48.062;7.474;2023-04-03T01:25:26;6.25;;;2.20;;
42260;SDS011;27926;48.062;7.474;2023-04-03T01:27:51;5.30;;;2.35;;
42260;SDS011;27926;48.062;7.474;2023-04-03T01:30:16;4.53;;;2.70;;
42260;SDS011;27926;48.062;7.474;2023-04-03T01:32:44;6.60;;;3.58;;
42260;SDS011;27926;48.062;7.474;2023-04-03T01:35:09;5.55;;;2.60;;
42260;SDS011;27926;48.062;7.474;2023-04-03T01:37:33;5.63;;;2.55;;
42260;SDS011;27926;48.062;7.474;2023-04-03T01:39:58;10.13;;;3.07;;
42260;SDS011;27926;48.062;7.474;2023-04-03T01:42:23;4.80;;;2.55;;
42260;SDS011;27926;48.062;7.474;2023-04-03T01:44:47;3.65;;;2.25;;
42260;SDS011;27926;48.062;7.474;2023-04-03T01:47:12;4.53;;;2.40;;
42260;SDS011;27926;48.062;7.474;2023-04-03T01:49:36;13.40;;;2.65;;
42260;SDS011;27926;48.062;7.474;2023-04-03T01:52:01;5.90;;;2.85;;
42260;SDS011;27926;48.062;7.474;2023-04-03T01:54:26;7.95;;;3.17;;
42260;SDS011;27926;48.062;7.474;2023-04-03T01:56:50;4.47;;;2.60;;
42260;SDS011;27926;48.062;7.474;2023-04-03T01:59:15;8.75;;;2.88;;
42260;SDS011;27926;48.062;7.474;2023-04-03T02:01:41;5.60;;;2.30;;
42260;SDS011;27926;48.062;7.474;2023-04-03T02:04:07;5.03;;;2.63;;
42260;SDS011;27926;48.062;7.474;2023-04-03T02:06:32;5.45;;;2.53;;
42260;SDS011;27926;48.062;7.474;2023-04-03T02:08:56;8.18;;;2.95;;
42260;SDS011;27926;48.062;7.474;2023-04-03T02:11:21;5.88;;;2.40;;
42260;SDS011;27926;48.062;7.474;2023-04-03T02:13:45;7.00;;;2.92;;
42260;SDS011;27926;48.062;7.474;2023-04-03T02:16:10;7.10;;;3.13;;
42260;SDS011;27926;48.062;7.474;2023-04-03T02:18:36;10.55;;;2.78;;
42260;SDS011;27926;48.062;7.474;2023-04-03T02:21:01;6.10;;;2.50;;
42260;SDS011;27926;48.062;7.474;2023-04-03T02:23:26;1.63;;;1.33;;
42260;SDS011;27926;48.062;7.474;2023-04-03T02:25:50;6.67;;;2.67;;
42260;SDS011;27926;48.062;7.474;2023-04-03T02:28:15;8.18;;;2.38;;
42260;SDS011;27926;48.062;7.474;2023-04-03T02:30:39;5.03;;;2.87;;
42260;SDS011;27926;48.062;7.474;2023-04-03T02:33:04;7.63;;;2.60;;
42260;SDS011;27926;48.062;7.474;2023-04-03T02:35:29;4.95;;;2.15;;
42260;SDS011;27926;48.062;7.474;2023-04-03T02:37:53;3.72;;;2.47;;
42260;SDS011;27926;48.062;7.474;2023-04-03T02:40:18;4.60;;;2.13;;
42260;SDS011;27926;48.062;7.474;2023-04-03T02:42:44;4.78;;;2.75;;
42260;SDS011;27926;48.062;7.474;2023-04-03T02:45:09;7.75;;;3.13;;
42260;SDS011;27926;48.062;7.474;2023-04-03T02:47:34;9.50;;;2.57;;
42260;SDS011;27926;48.062;7.474;2023-04-03T02:49:58;7.50;;;2.53;;
42260;SDS011;27926;48.062;7.474;2023-04-03T02:52:23;7.50;;;2.47;;
42260;SDS011;27926;48.062;7.474;2023-04-03T02:54:47;9.73;;;2.53;;
42260;SDS011;27926;48.062;7.474;2023-04-03T02:57:12;5.83;;;3.17;;
42260;SDS011;27926;48.062;7.474;2023-04-03T02:59:37;7.35;;;2.05;;
42260;SDS011;27926;48.062;7.474;2023-04-03T03:02:05;6.10;;;3.55;;
42260;SDS011;27926;48.062;7.474;2023-04-03T03:04:29;4.55;;;2.67;;
42260;SDS011;27926;48.062;7.474;2023-04-03T03:06:54;5.93;;;2.78;;
42260;SDS011;27926;48.062;7.474;2023-04-03T03:09:19;5.05;;;2.42;;
42260;SDS011;27926;48.062;7.474;2023-04-03T03:11:43;7.22;;;2.55;;
42260;SDS011;27926;48.062;7.474;2023-04-03T03:14:08;5.75;;;2.33;;
42260;SDS011;27926;48.062;7.474;2023-04-03T03:16:33;4.07;;;2.20;;
42260;SDS011;27926;48.062;7.474;2023-04-03T03:18:57;3.45;;;2.30;;
42260;SDS011;27926;48.062;7.474;2023-04-03T03:21:22;4.45;;;2.45;;
42260;SDS011;27926;48.062;7.474;2023-04-03T03:23:47;8.13;;;2.95;;
42260;SDS011;27926;48.062;7.474;2023-04-03T03:26:11;3.78;;;2.20;;
42260;SDS011;27926;48.062;7.474;2023-04-03T03:28:36;7.20;;;2.92;;
42260;SDS011;27926;48.062;7.474;2023-04-03T03:31:02;4.03;;;2.13;;
42260;SDS011;27926;48.062;7.474;2023-04-03T03:33:28;7.25;;;2.72;;
42260;SDS011;27926;48.062;7.474;2023-04-03T03:35:53;7.47;;;2.30;;
42260;SDS011;27926;48.062;7.474;2023-04-03T03:38:18;4.20;;;2.25;;
42260;SDS011;27926;48.062;7.474;2023-04-03T03:40:43;8.50;;;2.78;;
42260;SDS011;27926;48.062;7.474;2023-04-03T03:43:08;8.52;;;2.63;;
42260;SDS011;27926;48.062;7.474;2023-04-03T03:45:33;7.50;;;2.77;;
42260;SDS011;27926;48.062;7.474;2023-04-03T03:47:58;4.35;;;2.45;;
42260;SDS011;27926;48.062;7.474;2023-04-03T03:50:22;4.80;;;2.23;;
42260;SDS011;27926;48.062;7.474;2023-04-03T03:52:47;7.40;;;2.33;;
42260;SDS011;27926;48.062;7.474;2023-04-03T03:55:12;4.60;;;2.33;;
42260;SDS011;27926;48.062;7.474;2023-04-03T03:57:36;6.30;;;2.92;;
42260;SDS011;27926;48.062;7.474;2023-04-03T04:00:01;3.30;;;2.20;;
42260;SDS011;27926;48.062;7.474;2023-04-03T04:04:52;3.30;;;2.00;;
42260;SDS011;27926;48.062;7.474;2023-04-03T04:07:16;6.70;;;2.45;;
42260;SDS011;27926;48.062;7.474;2023-04-03T04:09:41;3.92;;;2.20;;
42260;SDS011;27926;48.062;7.474;2023-04-03T04:12:05;6.70;;;2.60;;
42260;SDS011;27926;48.062;7.474;2023-04-03T04:14:30;6.57;;;2.47;;
42260;SDS011;27926;48.062;7.474;2023-04-03T04:16:55;6.72;;;2.67;;
42260;SDS011;27926;48.062;7.474;2023-04-03T04:19:19;2.92;;;2.22;;
42260;SDS011;27926;48.062;7.474;2023-04-03T04:21:44;6.93;;;2.83;;
42260;SDS011;27926;48.062;7.474;2023-04-03T04:24:09;4.65;;;2.20;;
42260;SDS011;27926;48.062;7.474;2023-04-03T04:26:34;6.10;;;2.72;;
42260;SDS011;27926;48.062;7.474;2023-04-03T04:28:59;7.07;;;2.75;;
42260;SDS011;27926;48.062;7.474;2023-04-03T04:31:24;14.00;;;2.92;;
42260;SDS011;27926;48.062;7.474;2023-04-03T04:33:48;4.35;;;2.67;;
42260;SDS011;27926;48.062;7.474;2023-04-03T04:36:13;5.28;;;2.40;;
42260;SDS011;27926;48.062;7.474;2023-04-03T04:38:38;8.90;;;3.23;;
42260;SDS011;27926;48.062;7.474;2023-04-03T04:41:03;3.78;;;2.17;;
42260;SDS011;27926;48.062;7.474;2023-04-03T04:43:28;3.55;;;2.33;;
42260;SDS011;27926;48.062;7.474;2023-04-03T04:46:11;4.80;;;2.78;;
42260;SDS011;27926;48.062;7.474;2023-04-03T04:48:36;5.25;;;2.67;;
42260;SDS011;27926;48.062;7.474;2023-04-03T04:51:00;6.00;;;2.22;;
42260;SDS011;27926;48.062;7.474;2023-04-03T04:53:28;4.15;;;2.53;;
42260;SDS011;27926;48.062;7.474;2023-04-03T04:55:53;2.60;;;2.10;;
42260;SDS011;27926;48.062;7.474;2023-04-03T04:58:18;7.47;;;2.40;;
42260;SDS011;27926;48.062;7.474;2023-04-03T05:00:42;8.98;;;3.35;;
42260;SDS011;27926;48.062;7.474;2023-04-03T05:03:07;6.57;;;3.37;;
42260;SDS011;27926;48.062;7.474;2023-04-03T05:05:32;5.97;;;2.53;;
42260;SDS011;27926;48.062;7.474;2023-04-03T05:10:22;4.82;;;2.42;;
42260;SDS011;27926;48.062;7.474;2023-04-03T05:12:47;7.28;;;2.95;;
42260;SDS011;27926;48.062;7.474;2023-04-03T05:15:11;3.58;;;1.75;;
42260;SDS011;27926;48.062;7.474;2023-04-03T05:17:36;6.97;;;2.67;;
42260;SDS011;27926;48.062;7.474;2023-04-03T05:20:01;4.88;;;2.72;;
42260;SDS011;27926;48.062;7.474;2023-04-03T05:22:26;7.07;;;2.30;;
42260;SDS011;27926;48.062;7.474;2023-04-03T05:24:51;7.60;;;3.00;;
42260;SDS011;27926;48.062;7.474;2023-04-03T05:27:16;9.38;;;2.47;;
42260;SDS011;27926;48.062;7.474;2023-04-03T05:29:40;5.17;;;2.70;;
42260;SDS011;27926;48.062;7.474;2023-04-03T05:32:07;3.97;;;1.95;;
42260;SDS011;27926;48.062;7.474;2023-04-03T05:34:32;5.10;;;2.70;;
42260;SDS011;27926;48.062;7.474;2023-04-03T05:36:56;4.88;;;1.85;;
42260;SDS011;27926;48.062;7.474;2023-04-03T05:39:21;3.45;;;1.90;;
42260;SDS011;27926;48.062;7.474;2023-04-03T05:41:46;6.35;;;2.47;;
42260;SDS011;27926;48.062;7.474;2023-04-03T05:44:11;6.43;;;2.55;;
42260;SDS011;27926;48.062;7.474;2023-04-03T05:46:37;8.68;;;2.47;;
42260;SDS011;27926;48.062;7.474;2023-04-03T05:49:05;8.20;;;2.67;;
42260;SDS011;27926;48.062;7.474;2023-04-03T05:51:34;3.35;;;1.92;;
42260;SDS011;27926;48.062;7.474;2023-04-03T05:54:03;7.85;;;2.25;;
42260;SDS011;27926;48.062;7.474;2023-04-03T05:56:58;5.28;;;2.63;;
42260;SDS011;27926;48.062;7.474;2023-04-03T05:59:22;6.22;;;1.90;;
42260;SDS011;27926;48.062;7.474;2023-04-03T06:01:47;6.68;;;2.33;;
42260;SDS011;27926;48.062;7.474;2023-04-03T06:04:12;4.63;;;1.93;;
42260;SDS011;27926;48.062;7.474;2023-04-03T06:06:47;4.85;;;2.20;;
42260;SDS011;27926;48.062;7.474;2023-04-03T06:09:17;3.00;;;1.95;;
42260;SDS011;27926;48.062;7.474;2023-04-03T06:11:43;8.95;;;2.60;;
42260;SDS011;27926;48.062;7.474;2023-04-03T06:14:08;7.78;;;2.72;;
42260;SDS011;27926;48.062;7.474;2023-04-03T06:16:33;5.22;;;2.53;;
42260;SDS011;27926;48.062;7.474;2023-04-03T06:18:58;9.55;;;3.00;;
42260;SDS011;27926;48.062;7.474;2023-04-03T06:21:23;6.72;;;2.65;;
42260;SDS011;27926;48.062;7.474;2023-04-03T06:23:48;6.03;;;2.42;;
42260;SDS011;27926;48.062;7.474;2023-04-03T06:26:12;10.23;;;2.85;;
42260;SDS011;27926;48.062;7.474;2023-04-03T06:28:37;6.47;;;2.77;;
42260;SDS011;27926;48.062;7.474;2023-04-03T06:31:01;13.10;;;2.80;;
42260;SDS011;27926;48.062;7.474;2023-04-03T06:33:26;2.80;;;2.22;;
42260;SDS011;27926;48.062;7.474;2023-04-03T06:35:55;5.07;;;2.40;;
42260;SDS011;27926;48.062;7.474;2023-04-03T06:38:22;4.68;;;2.42;;
42260;SDS011;27926;48.062;7.474;2023-04-03T06:40:46;4.80;;;2.95;;
42260;SDS011;27926;48.062;7.474;2023-04-03T06:43:11;5.60;;;2.42;;
42260;SDS011;27926;48.062;7.474;2023-04-03T06:45:36;5.15;;;2.75;;
42260;SDS011;27926;48.062;7.474;2023-04-03T06:48:00;8.68;;;3.30;;
42260;SDS011;27926;48.062;7.474;2023-04-03T06:50:25;9.55;;;3.55;;
42260;SDS011;27926;48.062;7.474;2023-04-03T06:52:50;10.88;;;3.28;;
42260;SDS011;27926;48.062;7.474;2023-04-03T06:55:14;7.13;;;2.45;;
42260;SDS011;27926;48.062;7.474;2023-04-03T06:57:39;5.40;;;2.63;;
42260;SDS011;27926;48.062;7.474;2023-04-03T07:00:04;9.68;;;3.00;;
42260;SDS011;27926;48.062;7.474;2023-04-03T07:02:29;6.93;;;3.20;;
42260;SDS011;27926;48.062;7.474;2023-04-03T07:04:54;7.97;;;3.13;;
42260;SDS011;27926;48.062;7.474;2023-04-03T07:07:19;4.85;;;2.67;;
42260;SDS011;27926;48.062;7.474;2023-04-03T07:09:43;9.40;;;3.03;;
42260;SDS011;27926;48.062;7.474;2023-04-03T07:12:08;8.60;;;2.93;;
42260;SDS011;27926;48.062;7.474;2023-04-03T07:14:33;8.45;;;3.13;;
42260;SDS011;27926;48.062;7.474;2023-04-03T07:16:57;6.70;;;3.35;;
42260;SDS011;27926;48.062;7.474;2023-04-03T07:19:22;16.20;;;3.50;;
42260;SDS011;27926;48.062;7.474;2023-04-03T07:21:48;4.82;;;3.10;;
42260;SDS011;27926;48.062;7.474;2023-04-03T07:24:12;9.20;;;3.28;;
42260;SDS011;27926;48.062;7.474;2023-04-03T07:26:38;4.93;;;2.65;;
42260;SDS011;27926;48.062;7.474;2023-04-03T07:29:03;4.97;;;3.25;;
42260;SDS011;27926;48.062;7.474;2023-04-03T07:31:27;4.88;;;3.83;;
42260;SDS011;27926;48.062;7.474;2023-04-03T07:36:19;5.63;;;2.72;;
42260;SDS011;27926;48.062;7.474;2023-04-03T07:38:45;7.43;;;3.17;;
42260;SDS011;27926;48.062;7.474;2023-04-03T07:41:16;9.20;;;3.20;;
42260;SDS011;27926;48.062;7.474;2023-04-03T07:43:44;5.65;;;2.95;;
42260;SDS011;27926;48.062;7.474;2023-04-03T07:46:09;6.30;;;2.90;;
42260;SDS011;27926;48.062;7.474;2023-04-03T07:48:33;5.28;;;3.03;;
42260;SDS011;27926;48.062;7.474;2023-04-03T07:50:59;6.85;;;2.97;;
42260;SDS011;27926;48.062;7.474;2023-04-03T07:53:25;5.80;;;3.00;;
42260;SDS011;27926;48.062;7.474;2023-04-03T07:55:50;7.55;;;3.13;;
42260;SDS011;27926;48.062;7.474;2023-04-03T07:58:19;6.20;;;3.30;;
42260;SDS011;27926;48.062;7.474;2023-04-03T08:00:44;6.07;;;3.42;;
42260;SDS011;27926;48.062;7.474;2023-04-03T08:03:09;9.85;;;3.28;;
42260;SDS011;27926;48.062;7.474;2023-04-03T08:05:41;7.65;;;3.78;;
42260;SDS011;27926;48.062;7.474;2023-04-03T08:08:06;6.30;;;3.22;;
42260;SDS011;27926;48.062;7.474;2023-04-03T08:10:33;6.82;;;3.65;;
42260;SDS011;27926;48.062;7.474;2023-04-03T08:12:58;6.70;;;3.75;;
42260;SDS011;27926;48.062;7.474;2023-04-03T08:15:23;11.27;;;3.85;;
42260;SDS011;27926;48.062;7.474;2023-04-03T08:17:47;12.70;;;3.70;;
42260;SDS011;27926;48.062;7.474;2023-04-03T08:20:12;8.13;;;3.20;;
42260;SDS011;27926;48.062;7.474;2023-04-03T08:22:37;6.60;;;3.50;;
42260;SDS011;27926;48.062;7.474;2023-04-03T08:25:01;6.13;;;3.30;;
42260;SDS011;27926;48.062;7.474;2023-04-03T08:27:26;8.75;;;3.63;;
42260;SDS011;27926;48.062;7.474;2023-04-03T08:29:52;6.45;;;3.33;;
42260;SDS011;27926;48.062;7.474;2023-04-03T08:32:17;9.63;;;3.05;;
42260;SDS011;27926;48.062;7.474;2023-04-03T08:34:42;5.00;;;2.55;;
42260;SDS011;27926;48.062;7.474;2023-04-03T08:37:06;6.15;;;3.20;;
42260;SDS011;27926;48.062;7.474;2023-04-03T08:39:31;9.10;;;2.85;;
42260;SDS011;27926;48.062;7.474;2023-04-03T08:41:57;5.28;;;3.15;;
42260;SDS011;27926;48.062;7.474;2023-04-03T08:47:04;4.93;;;2.78;;
42260;SDS011;27926;48.062;7.474;2023-04-03T08:49:37;6.70;;;3.20;;
42260;SDS011;27926;48.062;7.474;2023-04-03T08:52:11;7.30;;;3.45;;
42260;SDS011;27926;48.062;7.474;2023-04-03T08:54:52;3.55;;;2.40;;
42260;SDS011;27926;48.062;7.474;2023-04-03T09:00:05;3.10;;;2.13;;
42260;SDS011;27926;48.062;7.474;2023-04-03T09:02:41;6.25;;;2.50;;
42260;SDS011;27926;48.062;7.474;2023-04-03T09:07:44;5.07;;;2.50;;
42260;SDS011;27926;48.062;7.474;2023-04-03T09:10:12;3.35;;;2.05;;
42260;SDS011;27926;48.062;7.474;2023-04-03T09:12:39;4.03;;;2.03;;
42260;SDS011;27926;48.062;7.474;2023-04-03T09:15:25;4.57;;;2.47;;
42260;SDS011;27926;48.062;7.474;2023-04-03T09:17:56;4.88;;;2.78;;
42260;SDS011;27926;48.062;7.474;2023-04-03T09:23:31;8.57;;;2.78;;
42260;SDS011;27926;48.062;7.474;2023-04-03T09:26:19;3.80;;;2.08;;
42260;SDS011;27926;48.062;7.474;2023-04-03T09:28:54;4.45;;;2.17;;
42260;SDS011;27926;48.062;7.474;2023-04-03T09:31:23;3.75;;;1.85;;
42260;SDS011;27926;48.062;7.474;2023-04-03T09:33:50;3.70;;;2.25;;
42260;SDS011;27926;48.062;7.474;2023-04-03T09:36:46;2.63;;;2.13;;
42260;SDS011;27926;48.062;7.474;2023-04-03T09:41:40;4.78;;;2.05;;
42260;SDS011;27926;48.062;7.474;2023-04-03T09:44:17;5.40;;;2.33;;
42260;SDS011;27926;48.062;7.474;2023-04-03T09:46:48;4.22;;;1.95;;
42260;SDS011;27926;48.062;7.474;2023-04-03T09:49:13;4.95;;;2.42;;
42260;SDS011;27926;48.062;7.474;2023-04-03T09:51:38;4.90;;;2.08;;
42260;SDS011;27926;48.062;7.474;2023-04-03T09:54:23;3.53;;;2.35;;
42260;SDS011;27926;48.062;7.474;2023-04-03T09:56:51;3.40;;;2.37;;
42260;SDS011;27926;48.062;7.474;2023-04-03T09:59:17;3.47;;;2.47;;
42260;SDS011;27926;48.062;7.474;2023-04-03T10:01:42;3.25;;;2.15;;
42260;SDS011;27926;48.062;7.474;2023-04-03T10:04:21;3.92;;;1.95;;
42260;SDS011;27926;48.062;7.474;2023-04-03T10:12:00;3.40;;;1.52;;
42260;SDS011;27926;48.062;7.474;2023-04-03T10:14:25;4.55;;;2.00;;
42260;SDS011;27926;48.062;7.474;2023-04-03T10:16:56;7.78;;;2.40;;
42260;SDS011;27926;48.062;7.474;2023-04-03T10:47:10;4.30;;;2.30;;
42260;SDS011;27926;48.062;7.474;2023-04-03T10:52:14;5.70;;;2.47;;
42260;SDS011;27926;48.062;7.474;2023-04-03T10:57:43;3.03;;;1.83;;
42260;SDS011;27926;48.062;7.474;2023-04-03T11:00:42;3.53;;;2.00;;
42260;SDS011;27926;48.062;7.474;2023-04-03T11:03:36;4.40;;;2.00;;
42260;SDS011;27926;48.062;7.474;2023-04-03T11:06:16;5.43;;;1.85;;
42260;SDS011;27926;48.062;7.474;2023-04-03T11:11:22;9.55;;;2.10;;
42260;SDS011;27926;48.062;7.474;2023-04-03T11:16:59;5.28;;;1.50;;
42260;SDS011;27926;48.062;7.474;2023-04-03T11:21:57;3.75;;;1.70;;
42260;SDS011;27926;48.062;7.474;2023-04-03T11:25:08;4.90;;;1.25;;
42260;SDS011;27926;48.062;7.474;2023-04-03T11:30:23;2.72;;;1.70;;
42260;SDS011;27926;48.062;7.474;2023-04-03T11:33:40;2.33;;;1.70;;
42260;SDS011;27926;48.062;7.474;2023-04-03T11:36:18;2.50;;;1.33;;
42260;SDS011;27926;48.062;7.474;2023-04-03T11:39:10;3.45;;;1.73;;
42260;SDS011;27926;48.062;7.474;2023-04-03T11:41:50;3.10;;;2.17;;
42260;SDS011;27926;48.062;7.474;2023-04-03T11:47:03;6.00;;;3.15;;
42260;SDS011;27926;48.062;7.474;2023-04-03T11:58:02;4.43;;;2.15;;
42260;SDS011;27926;48.062;7.474;2023-04-03T12:08:43;2.03;;;1.23;;
42260;SDS011;27926;48.062;7.474;2023-04-03T12:13:38;3.85;;;1.77;;
42260;SDS011;27926;48.062;7.474;2023-04-03T12:16:42;1.50;;;1.15;;
42260;SDS011;27926;48.062;7.474;2023-04-03T12:29:25;3.95;;;1.60;;
42260;SDS011;27926;48.062;7.474;2023-04-03T12:31:55;3.00;;;1.80;;
42260;SDS011;27926;48.062;7.474;2023-04-03T12:37:50;3.05;;;1.55;;
42260;SDS011;27926;48.062;7.474;2023-04-03T12:48:38;2.53;;;1.55;;
42260;SDS011;27926;48.062;7.474;2023-04-03T12:51:09;6.32;;;1.75;;
42260;SDS011;27926;48.062;7.474;2023-04-03T12:53:46;5.95;;;1.83;;
42260;SDS011;27926;48.062;7.474;2023-04-03T12:58:43;6.05;;;1.80;;
42260;SDS011;27926;48.062;7.474;2023-04-03T13:03:32;2.75;;;1.40;;
42260;SDS011;27926;48.062;7.474;2023-04-03T13:05:58;2.15;;;1.63;;
42260;SDS011;27926;48.062;7.474;2023-04-03T13:08:26;4.85;;;1.38;;
42260;SDS011;27926;48.062;7.474;2023-04-03T13:10:52;2.70;;;1.40;;
42260;SDS011;27926;48.062;7.474;2023-04-03T13:13:26;7.20;;;1.63;;
42260;SDS011;27926;48.062;7.474;2023-04-03T13:15:51;5.70;;;1.50;;
42260;SDS011;27926;48.062;7.474;2023-04-03T13:20:57;2.15;;;1.35;;
42260;SDS011;27926;48.062;7.474;2023-04-03T13:23:25;2.17;;;1.55;;
42260;SDS011;27926;48.062;7.474;2023-04-03T13:25:50;4.85;;;1.92;;
42260;SDS011;27926;48.062;7.474;2023-04-03T13:28:16;3.55;;;1.50;;
42260;SDS011;27926;48.062;7.474;2023-04-03T13:31:08;4.22;;;1.30;;
42260;SDS011;27926;48.062;7.474;2023-04-03T13:33:57;4.90;;;1.83;;
42260;SDS011;27926;48.062;7.474;2023-04-03T13:36:29;5.10;;;1.23;;
42260;SDS011;27926;48.062;7.474;2023-04-03T13:39:01;2.85;;;1.73;;
42260;SDS011;27926;48.062;7.474;2023-04-03T13:41:31;2.80;;;1.60;;
42260;SDS011;27926;48.062;7.474;2023-04-03T13:44:23;5.15;;;1.70;;
42260;SDS011;27926;48.062;7.474;2023-04-03T13:46:55;12.55;;;2.35;;
42260;SDS011;27926;48.062;7.474;2023-04-03T13:52:00;2.75;;;1.83;;
42260;SDS011;27926;48.062;7.474;2023-04-03T13:54:51;4.30;;;2.22;;
42260;SDS011;27926;48.062;7.474;2023-04-03T13:57:18;3.72;;;1.65;;
42260;SDS011;27926;48.062;7.474;2023-04-03T13:59:43;1.95;;;1.40;;
42260;SDS011;27926;48.062;7.474;2023-04-03T14:04:44;8.95;;;1.58;;
42260;SDS011;27926;48.062;7.474;2023-04-03T14:07:12;6.13;;;2.20;;
42260;SDS011;27926;48.062;7.474;2023-04-03T14:09:38;1.13;;;0.82;;
42260;SDS011;27926;48.062;7.474;2023-04-03T14:12:07;1.45;;;1.20;;
42260;SDS011;27926;48.062;7.474;2023-04-03T14:14:37;2.38;;;1.88;;
42260;SDS011;27926;48.062;7.474;2023-04-03T14:17:12;3.20;;;1.55;;
42260;SDS011;27926;48.062;7.474;2023-04-03T14:19:40;2.28;;;1.10;;
42260;SDS011;27926;48.062;7.474;2023-04-03T14:24:45;3.80;;;1.98;;
42260;SDS011;27926;48.062;7.474;2023-04-03T14:27:12;2.15;;;1.55;;
42260;SDS011;27926;48.062;7.474;2023-04-03T14:29:41;6.47;;;1.70;;
42260;SDS011;27926;48.062;7.474;2023-04-03T14:32:05;4.68;;;1.85;;
42260;SDS011;27926;48.062;7.474;2023-04-03T14:34:30;1.95;;;1.50;;
42260;SDS011;27926;48.062;7.474;2023-04-03T14:36:54;2.08;;;1.30;;
42260;SDS011;27926;48.062;7.474;2023-04-03T14:39:19;4.18;;;2.22;;
42260;SDS011;27926;48.062;7.474;2023-04-03T14:41:44;6.80;;;2.10;;
42260;SDS011;27926;48.062;7.474;2023-04-03T14:44:09;4.20;;;2.40;;
42260;SDS011;27926;48.062;7.474;2023-04-03T14:46:38;4.43;;;2.20;;
42260;SDS011;27926;48.062;7.474;2023-04-03T14:49:13;4.32;;;1.85;;
42260;SDS011;27926;48.062;7.474;2023-04-03T14:51:46;7.30;;;1.95;;
42260;SDS011;27926;48.062;7.474;2023-04-03T14:54:12;4.03;;;1.48;;
42260;SDS011;27926;48.062;7.474;2023-04-03T14:56:39;1.65;;;1.40;;
42260;SDS011;27926;48.062;7.474;2023-04-03T14:59:04;3.95;;;1.60;;
42260;SDS011;27926;48.062;7.474;2023-04-03T15:01:33;5.70;;;1.67;;
42260;SDS011;27926;48.062;7.474;2023-04-03T15:03:58;3.35;;;1.52;;
42260;SDS011;27926;48.062;7.474;2023-04-03T15:06:22;3.83;;;2.00;;
42260;SDS011;27926;48.062;7.474;2023-04-03T15:11:13;3.83;;;1.63;;
42260;SDS011;27926;48.062;7.474;2023-04-03T15:13:39;4.75;;;1.73;;
42260;SDS011;27926;48.062;7.474;2023-04-03T15:16:04;4.30;;;1.85;;
42260;SDS011;27926;48.062;7.474;2023-04-03T15:18:40;4.85;;;1.80;;
42260;SDS011;27926;48.062;7.474;2023-04-03T15:21:05;3.78;;;1.40;;
42260;SDS011;27926;48.062;7.474;2023-04-03T15:23:30;5.47;;;1.63;;
42260;SDS011;27926;48.062;7.474;2023-04-03T15:25:55;4.00;;;2.08;;
42260;SDS011;27926;48.062;7.474;2023-04-03T15:28:33;3.20;;;1.80;;
42260;SDS011;27926;48.062;7.474;2023-04-03T15:31:00;7.82;;;1.90;;
42260;SDS011;27926;48.062;7.474;2023-04-03T15:33:25;5.40;;;1.98;;
42260;SDS011;27926;48.062;7.474;2023-04-03T15:35:50;8.30;;;2.38;;
42260;SDS011;27926;48.062;7.474;2023-04-03T15:38:14;10.13;;;2.95;;
42260;SDS011;27926;48.062;7.474;2023-04-03T15:40:39;8.73;;;2.58;;
42260;SDS011;27926;48.062;7.474;2023-04-03T15:43:04;4.03;;;2.08;;
42260;SDS011;27926;48.062;7.474;2023-04-03T15:45:30;3.83;;;1.60;;
42260;SDS011;27926;48.062;7.474;2023-04-03T15:47:55;4.07;;;1.70;;
42260;SDS011;27926;48.062;7.474;2023-04-03T15:50:19;3.55;;;1.80;;
42260;SDS011;27926;48.062;7.474;2023-04-03T15:52:47;4.55;;;2.25;;
42260;SDS011;27926;48.062;7.474;2023-04-03T15:55:12;3.70;;;2.00;;
42260;SDS011;27926;48.062;7.474;2023-04-03T15:57:36;2.40;;;1.25;;
42260;SDS011;27926;48.062;7.474;2023-04-03T16:00:01;6.90;;;1.38;;
42260;SDS011;27926;48.062;7.474;2023-04-03T16:02:26;6.10;;;1.80;;
42260;SDS011;27926;48.062;7.474;2023-04-03T16:04:51;4.03;;;1.50;;
42260;SDS011;27926;48.062;7.474;2023-04-03T16:07:16;3.90;;;1.70;;
42260;SDS011;27926;48.062;7.474;2023-04-03T16:09:40;2.67;;;1.42;;
42260;SDS011;27926;48.062;7.474;2023-04-03T16:12:05;5.75;;;2.08;;
42260;SDS011;27926;48.062;7.474;2023-04-03T16:14:29;5.07;;;2.15;;
42260;SDS011;27926;48.062;7.474;2023-04-03T16:16:54;3.42;;;1.80;;
42260;SDS011;27926;48.062;7.474;2023-04-03T16:19:20;10.85;;;2.58;;
42260;SDS011;27926;48.062;7.474;2023-04-03T16:21:44;6.38;;;2.65;;
42260;SDS011;27926;48.062;7.474;2023-04-03T16:24:10;4.90;;;1.58;;
42260;SDS011;27926;48.062;7.474;2023-04-03T16:26:35;7.18;;;1.90;;
42260;SDS011;27926;48.062;7.474;2023-04-03T16:29:00;3.95;;;2.17;;
42260;SDS011;27926;48.062;7.474;2023-04-03T16:31:24;3.88;;;1.75;;
42260;SDS011;27926;48.062;7.474;2023-04-03T16:33:50;3.30;;;1.80;;
42260;SDS011;27926;48.062;7.474;2023-04-03T16:36:14;4.15;;;1.95;;
42260;SDS011;27926;48.062;7.474;2023-04-03T16:38:39;6.03;;;1.60;;
42260;SDS011;27926;48.062;7.474;2023-04-03T16:41:04;6.80;;;1.90;;
42260;SDS011;27926;48.062;7.474;2023-04-03T16:43:29;5.13;;;1.55;;
42260;SDS011;27926;48.062;7.474;2023-04-03T16:45:53;3.00;;;1.48;;
42260;SDS011;27926;48.062;7.474;2023-04-03T16:48:18;6.88;;;1.80;;
42260;SDS011;27926;48.062;7.474;2023-04-03T16:50:46;7.30;;;1.83;;
42260;SDS011;27926;48.062;7.474;2023-04-03T16:53:12;8.63;;;1.70;;
42260;SDS011;27926;48.062;7.474;2023-04-03T16:55:36;4.63;;;1.77;;
42260;SDS011;27926;48.062;7.474;2023-04-03T16:58:01;7.13;;;1.58;;
42260;SDS011;27926;48.062;7.474;2023-04-03T17:00:25;3.40;;;1.80;;
42260;SDS011;27926;48.062;7.474;2023-04-03T17:02:51;4.03;;;1.85;;
42260;SDS011;27926;48.062;7.474;2023-04-03T17:05:15;6.93;;;1.83;;